createdAt,value
2017-12-28T00:00:54.005Z,791.47
2017-12-28T00:01:54.008Z,791.37
2017-12-28T00:02:54.012Z,791.43
2017-12-28T00:03:54.007Z,791.45
2017-12-28T00:04:54.014Z,791.44
2017-12-28T00:05:54.015Z,791.44
2017-12-28T00:06:54.014Z,791.47
2017-12-28T00:07:54.017Z,791.44
2017-12-28T00:08:54.018Z,791.42
2017-12-28T00:09:54.012Z,791.38
2017-12-28T00:10:54.012Z,791.40
2017-12-28T00:11:54.020Z,791.39
2017-12-28T00:12:54.017Z,791.39
2017-12-28T00:13:54.017Z,791.39
2017-12-28T00:14:54.016Z,791.40
2017-12-28T00:15:54.022Z,791.44
2017-12-28T00:16:54.024Z,791.48
2017-12-28T00:17:54.018Z,791.42
2017-12-28T00:18:54.026Z,791.47
2017-12-28T00:19:54.020Z,791.46
2017-12-28T00:20:54.026Z,791.38
2017-12-28T00:21:54.021Z,791.40
2017-12-28T00:22:54.028Z,791.34
2017-12-28T00:23:54.024Z,791.35
2017-12-28T00:24:54.028Z,791.40
2017-12-28T00:25:54.032Z,791.42
2017-12-28T00:26:54.024Z,791.49
2017-12-28T00:27:54.032Z,791.50
2017-12-28T00:28:54.031Z,791.49
2017-12-28T00:29:54.030Z,791.42
2017-12-28T00:30:54.034Z,791.47
2017-12-28T00:31:54.028Z,791.49
2017-12-28T00:32:54.029Z,791.54
2017-12-28T00:33:54.033Z,791.47
2017-12-28T00:34:54.037Z,791.55
2017-12-28T00:35:54.035Z,791.53
2017-12-28T00:36:54.037Z,791.56
2017-12-28T00:37:54.031Z,791.54
2017-12-28T00:38:54.032Z,791.53
2017-12-28T00:39:54.038Z,791.55
2017-12-28T00:40:54.039Z,791.48
2017-12-28T00:41:54.034Z,791.49
2017-12-28T00:42:54.033Z,791.49
2017-12-28T00:43:54.036Z,791.51
2017-12-28T00:44:54.035Z,791.52
2017-12-28T00:45:54.043Z,791.46
2017-12-28T00:46:54.041Z,791.55
2017-12-28T00:47:54.041Z,791.54
2017-12-28T00:48:54.043Z,791.52
2017-12-28T00:49:54.039Z,791.48
2017-12-28T00:50:54.049Z,791.48
2017-12-28T00:51:54.039Z,791.48
2017-12-28T00:52:54.042Z,791.44
2017-12-28T00:53:54.041Z,791.48
2017-12-28T00:54:54.040Z,791.47
2017-12-28T00:55:54.042Z,791.44
2017-12-28T00:56:54.042Z,791.44
2017-12-28T00:57:54.050Z,791.51
2017-12-28T00:58:54.049Z,791.51
2017-12-28T00:59:54.049Z,791.49
2017-12-28T01:00:54.051Z,791.52
2017-12-28T01:01:54.051Z,791.53
2017-12-28T01:02:54.047Z,791.56
2017-12-28T01:03:54.047Z,791.61
2017-12-28T01:04:54.048Z,791.63
2017-12-28T01:05:54.056Z,791.67
2017-12-28T01:06:54.054Z,791.66
2017-12-28T01:07:54.052Z,791.68
2017-12-28T01:08:54.050Z,791.65
2017-12-28T01:09:54.057Z,791.66
2017-12-28T01:10:54.054Z,791.71
2017-12-28T01:11:54.054Z,791.67
2017-12-28T01:12:54.054Z,791.70
2017-12-28T01:13:54.060Z,791.67
2017-12-28T01:14:54.062Z,791.67
2017-12-28T01:15:54.060Z,791.60
2017-12-28T01:16:54.065Z,791.64
2017-12-28T01:17:54.066Z,791.68
2017-12-28T01:18:54.062Z,791.64
2017-12-28T01:19:54.068Z,791.66
2017-12-28T01:20:54.070Z,791.64
2017-12-28T01:21:54.069Z,791.66
2017-12-28T01:22:54.071Z,791.64
2017-12-28T01:23:54.072Z,791.70
2017-12-28T01:24:54.068Z,791.73
2017-12-28T01:25:54.068Z,791.70
2017-12-28T01:26:54.073Z,791.74
2017-12-28T01:27:54.070Z,791.78
2017-12-28T01:28:54.071Z,791.79
2017-12-28T01:29:54.077Z,791.85
2017-12-28T01:30:54.079Z,791.84
2017-12-28T01:31:54.075Z,791.88
2017-12-28T01:32:54.078Z,791.87
2017-12-28T01:33:54.082Z,791.85
2017-12-28T01:34:54.077Z,791.90
2017-12-28T01:35:54.080Z,791.91
2017-12-28T01:36:54.080Z,791.93
2017-12-28T01:37:54.080Z,791.95
2017-12-28T01:38:54.083Z,792.01
2017-12-28T01:39:54.085Z,791.96
2017-12-28T01:40:54.090Z,791.95
2017-12-28T01:41:54.092Z,791.97
2017-12-28T01:42:54.094Z,791.97
2017-12-28T01:43:54.093Z,792.02
2017-12-28T01:44:54.096Z,792.03
2017-12-28T01:45:54.098Z,792.09
2017-12-28T01:46:54.099Z,792.01
2017-12-28T01:47:54.093Z,792.05
2017-12-28T01:48:54.095Z,792.09
2017-12-28T01:49:54.101Z,792.07
2017-12-28T01:50:54.096Z,792.01
2017-12-28T01:51:54.096Z,792.04
2017-12-28T01:52:54.104Z,792.05
2017-12-28T01:53:54.101Z,792.04
2017-12-28T01:54:54.108Z,792.06
2017-12-28T01:55:54.106Z,792.00
2017-12-28T01:56:54.103Z,792.01
2017-12-28T01:57:54.104Z,792.06
2017-12-28T01:58:54.104Z,791.98
2017-12-28T01:59:54.114Z,792.02
2017-12-28T02:00:54.115Z,792.02
2017-12-28T02:01:54.107Z,792.01
2017-12-28T02:02:54.115Z,792.03
2017-12-28T02:03:54.109Z,792.02
2017-12-28T02:04:54.116Z,792.03
2017-12-28T02:05:54.119Z,792.08
2017-12-28T02:06:54.114Z,792.12
2017-12-28T02:07:54.178Z,792.12
2017-12-28T02:08:54.123Z,792.12
2017-12-28T02:09:54.122Z,792.12
2017-12-28T02:10:54.174Z,792.10
2017-12-28T02:11:54.125Z,792.16
2017-12-28T02:12:54.125Z,792.16
2017-12-28T02:13:54.120Z,792.26
2017-12-28T02:14:54.127Z,792.23
2017-12-28T02:15:54.131Z,792.17
2017-12-28T02:16:54.125Z,792.12
2017-12-28T02:17:54.131Z,792.13
2017-12-28T02:18:54.134Z,792.16
2017-12-28T02:19:54.128Z,792.19
2017-12-28T02:20:54.129Z,792.22
2017-12-28T02:21:54.133Z,792.22
2017-12-28T02:22:54.131Z,792.22
2017-12-28T02:23:54.133Z,792.23
2017-12-28T02:24:54.140Z,792.27
2017-12-28T02:25:54.140Z,792.26
2017-12-28T02:26:54.135Z,792.32
2017-12-28T02:27:54.137Z,792.27
2017-12-28T02:28:54.145Z,792.31
2017-12-28T02:29:54.139Z,792.30
2017-12-28T02:30:54.143Z,792.31
2017-12-28T02:31:54.142Z,792.29
2017-12-28T02:32:54.143Z,792.28
2017-12-28T02:33:54.144Z,792.30
2017-12-28T02:34:54.149Z,792.32
2017-12-28T02:35:54.150Z,792.34
2017-12-28T02:36:54.154Z,792.37
2017-12-28T02:37:54.148Z,792.33
2017-12-28T02:38:54.156Z,792.42
2017-12-28T02:39:54.152Z,792.35
2017-12-28T02:40:54.158Z,792.36
2017-12-28T02:41:54.160Z,792.33
2017-12-28T02:42:54.158Z,792.28
2017-12-28T02:43:54.163Z,792.31
2017-12-28T02:44:54.155Z,792.35
2017-12-28T02:45:54.156Z,792.34
2017-12-28T02:46:54.159Z,792.39
2017-12-28T02:47:54.161Z,792.42
2017-12-28T02:48:54.167Z,792.46
2017-12-28T02:49:54.165Z,792.48
2017-12-28T02:50:54.163Z,792.45
2017-12-28T02:51:54.174Z,792.46
2017-12-28T02:52:54.170Z,792.45
2017-12-28T02:53:54.171Z,792.45
2017-12-28T02:54:54.166Z,792.43
2017-12-28T02:55:54.166Z,792.47
2017-12-28T02:56:54.175Z,792.52
2017-12-28T02:57:54.174Z,792.59
2017-12-28T02:58:54.176Z,792.68
2017-12-28T02:59:54.177Z,792.63
2017-12-28T03:00:54.178Z,792.62
2017-12-28T03:01:54.182Z,792.55
2017-12-28T03:02:54.181Z,792.58
2017-12-28T03:03:54.181Z,792.57
2017-12-28T03:04:54.184Z,792.53
2017-12-28T03:05:54.185Z,792.58
2017-12-28T03:06:54.179Z,792.62
2017-12-28T03:07:54.187Z,792.60
2017-12-28T03:08:54.183Z,792.62
2017-12-28T03:09:54.188Z,792.63
2017-12-28T03:10:54.189Z,792.59
2017-12-28T03:11:54.184Z,792.63
2017-12-28T03:12:54.186Z,792.64
2017-12-28T03:13:54.184Z,792.64
2017-12-28T03:14:54.187Z,792.67
2017-12-28T03:15:54.194Z,792.68
2017-12-28T03:16:54.189Z,792.74
2017-12-28T03:17:54.190Z,792.74
2017-12-28T03:18:54.192Z,792.71
2017-12-28T03:19:54.197Z,792.67
2017-12-28T03:20:54.194Z,792.63
2017-12-28T03:21:54.199Z,792.64
2017-12-28T03:22:54.201Z,792.64
2017-12-28T03:23:54.198Z,792.64
2017-12-28T03:24:54.205Z,792.66
2017-12-28T03:25:54.198Z,792.67
2017-12-28T03:26:54.204Z,792.68
2017-12-28T03:27:54.201Z,792.70
2017-12-28T03:28:54.205Z,792.66
2017-12-28T03:29:54.208Z,792.67
2017-12-28T03:30:54.204Z,792.61
2017-12-28T03:31:54.212Z,792.56
2017-12-28T03:32:54.212Z,792.56
2017-12-28T03:33:54.207Z,792.57
2017-12-28T03:34:54.215Z,792.61
2017-12-28T03:35:54.210Z,792.61
2017-12-28T03:36:54.210Z,792.62
2017-12-28T03:37:54.211Z,792.59
2017-12-28T03:38:54.218Z,792.63
2017-12-28T03:39:54.214Z,792.62
2017-12-28T03:40:54.217Z,792.64
2017-12-28T03:41:54.216Z,792.63
2017-12-28T03:42:54.222Z,792.62
2017-12-28T03:43:54.218Z,792.64
2017-12-28T03:44:54.218Z,792.67
2017-12-28T03:45:54.220Z,792.67
2017-12-28T03:46:54.226Z,792.70
2017-12-28T03:47:54.228Z,792.65
2017-12-28T03:48:54.229Z,792.69
2017-12-28T03:49:54.229Z,792.67
2017-12-28T03:50:54.223Z,792.75
2017-12-28T03:51:54.231Z,792.64
2017-12-28T03:52:54.229Z,792.72
2017-12-28T03:53:54.234Z,792.70
2017-12-28T03:54:54.235Z,792.74
2017-12-28T03:55:54.235Z,792.77
2017-12-28T03:56:54.236Z,792.74
2017-12-28T03:57:54.236Z,792.79
2017-12-28T03:58:54.233Z,792.86
2017-12-28T03:59:54.235Z,792.88
2017-12-28T04:00:54.243Z,792.89
2017-12-28T04:01:54.241Z,792.89
2017-12-28T04:02:54.242Z,792.94
2017-12-28T04:03:54.241Z,792.94
2017-12-28T04:04:54.240Z,792.92
2017-12-28T04:05:54.240Z,792.92
2017-12-28T04:06:54.243Z,792.86
2017-12-28T04:07:54.243Z,792.87
2017-12-28T04:08:54.251Z,792.83
2017-12-28T04:09:54.252Z,792.83
2017-12-28T04:10:54.252Z,792.85
2017-12-28T04:11:54.249Z,792.92
2017-12-28T04:12:54.256Z,792.92
2017-12-28T04:13:54.249Z,792.97
2017-12-28T04:14:54.257Z,792.98
2017-12-28T04:15:54.260Z,793.03
2017-12-28T04:16:54.262Z,792.99
2017-12-28T04:17:54.260Z,793.01
2017-12-28T04:18:54.257Z,793.03
2017-12-28T04:19:54.258Z,793.04
2017-12-28T04:20:54.266Z,793.07
2017-12-28T04:21:54.259Z,793.10
2017-12-28T04:22:54.268Z,793.09
2017-12-28T04:23:54.268Z,793.13
2017-12-28T04:24:54.270Z,793.12
2017-12-28T04:25:54.273Z,793.14
2017-12-28T04:26:54.266Z,793.15
2017-12-28T04:27:54.267Z,793.11
2017-12-28T04:28:54.269Z,793.14
2017-12-28T04:29:54.269Z,793.18
2017-12-28T04:30:54.270Z,793.23
2017-12-28T04:31:54.271Z,793.26
2017-12-28T04:32:54.273Z,793.21
2017-12-28T04:33:54.278Z,793.25
2017-12-28T04:34:54.281Z,793.27
2017-12-28T04:35:54.280Z,793.35
2017-12-28T04:36:54.282Z,793.27
2017-12-28T04:37:54.283Z,793.23
2017-12-28T04:38:54.279Z,793.31
2017-12-28T04:39:54.286Z,793.33
2017-12-28T04:40:54.287Z,793.34
2017-12-28T04:41:54.287Z,793.36
2017-12-28T04:42:54.289Z,793.39
2017-12-28T04:43:54.284Z,793.41
2017-12-28T04:44:54.292Z,793.36
2017-12-28T04:45:54.293Z,793.45
2017-12-28T04:46:54.293Z,793.45
2017-12-28T04:47:54.290Z,793.47
2017-12-28T04:48:54.290Z,793.43
2017-12-28T04:49:54.299Z,793.39
2017-12-28T04:50:54.292Z,793.45
2017-12-28T04:51:54.298Z,793.52
2017-12-28T04:52:54.295Z,793.51
2017-12-28T04:53:54.301Z,793.54
2017-12-28T04:54:54.296Z,793.51
2017-12-28T04:55:54.296Z,793.53
2017-12-28T04:56:54.301Z,793.57
2017-12-28T04:57:54.299Z,793.53
2017-12-28T04:58:54.306Z,793.57
2017-12-28T04:59:54.302Z,793.60
2017-12-28T05:00:54.307Z,793.62
2017-12-28T05:01:54.301Z,793.64
2017-12-28T05:02:54.308Z,793.59
2017-12-28T05:03:54.304Z,793.59
2017-12-28T05:04:54.306Z,793.63
2017-12-28T05:05:54.305Z,793.64
2017-12-28T05:06:54.312Z,793.70
2017-12-28T05:07:54.313Z,793.63
2017-12-28T05:08:54.308Z,793.67
2017-12-28T05:09:54.308Z,793.63
2017-12-28T05:10:54.315Z,793.71
2017-12-28T05:11:54.317Z,793.65
2017-12-28T05:12:54.317Z,793.58
2017-12-28T05:13:54.319Z,793.65
2017-12-28T05:14:54.317Z,793.65
2017-12-28T05:15:54.315Z,793.65
2017-12-28T05:16:54.315Z,793.71
2017-12-28T05:17:54.315Z,793.71
2017-12-28T05:18:54.321Z,793.71
2017-12-28T05:19:54.322Z,793.73
2017-12-28T05:20:54.319Z,793.76
2017-12-28T05:21:54.324Z,793.75
2017-12-28T05:22:54.325Z,793.72
2017-12-28T05:23:54.320Z,793.75
2017-12-28T05:24:54.328Z,793.82
2017-12-28T05:25:54.326Z,793.82
2017-12-28T05:26:54.322Z,793.84
2017-12-28T05:27:54.323Z,793.82
2017-12-28T05:28:54.325Z,793.78
2017-12-28T05:29:54.324Z,793.88
2017-12-28T05:30:54.330Z,793.88
2017-12-28T05:31:54.331Z,793.88
2017-12-28T05:32:54.335Z,793.86
2017-12-28T05:33:54.333Z,793.90
2017-12-28T05:34:54.334Z,793.85
2017-12-28T05:35:54.334Z,793.84
2017-12-28T05:36:54.339Z,793.83
2017-12-28T05:37:54.330Z,793.83
2017-12-28T05:38:54.331Z,793.81
2017-12-28T05:39:54.332Z,793.83
2017-12-28T05:40:54.342Z,793.84
2017-12-28T05:41:54.337Z,793.82
2017-12-28T05:42:54.335Z,793.82
2017-12-28T05:43:54.342Z,793.85
2017-12-28T05:44:54.343Z,793.89
2017-12-28T05:45:54.342Z,793.90
2017-12-28T05:46:54.343Z,793.90
2017-12-28T05:47:54.340Z,793.88
2017-12-28T05:48:54.395Z,793.86
2017-12-28T05:49:54.344Z,793.93
2017-12-28T05:50:54.345Z,793.94
2017-12-28T05:51:54.345Z,793.92
2017-12-28T05:52:54.347Z,793.95
2017-12-28T05:53:54.343Z,793.96
2017-12-28T05:54:54.343Z,793.92
2017-12-28T05:55:54.349Z,793.96
2017-12-28T05:56:54.350Z,793.98
2017-12-28T05:57:54.344Z,794.00
2017-12-28T05:58:54.345Z,794.04
2017-12-28T05:59:54.346Z,793.99
2017-12-28T06:00:54.350Z,794.03
2017-12-28T06:01:54.353Z,794.03
2017-12-28T06:02:54.348Z,794.09
2017-12-28T06:03:54.349Z,794.09
2017-12-28T06:04:54.354Z,794.10
2017-12-28T06:05:54.354Z,794.09
2017-12-28T06:06:54.356Z,794.15
2017-12-28T06:07:54.358Z,794.09
2017-12-28T06:08:54.353Z,794.12
2017-12-28T06:09:54.351Z,794.14
2017-12-28T06:10:54.362Z,794.19
2017-12-28T06:11:54.367Z,794.22
2017-12-28T06:12:54.360Z,794.20
2017-12-28T06:13:54.358Z,794.23
2017-12-28T06:14:54.362Z,794.24
2017-12-28T06:15:54.514Z,794.20
2017-12-28T06:16:54.361Z,794.20
2017-12-28T06:17:54.358Z,794.20
2017-12-28T06:18:54.366Z,794.24
2017-12-28T06:19:54.364Z,794.22
2017-12-28T06:20:54.369Z,794.22
2017-12-28T06:21:54.367Z,794.27
2017-12-28T06:22:54.363Z,794.26
2017-12-28T06:23:54.375Z,794.20
2017-12-28T06:24:54.372Z,794.16
2017-12-28T06:25:54.366Z,794.21
2017-12-28T06:26:54.372Z,794.24
2017-12-28T06:27:54.368Z,794.24
2017-12-28T06:28:54.373Z,794.31
2017-12-28T06:29:54.377Z,794.28
2017-12-28T06:30:54.376Z,794.28
2017-12-28T06:31:54.375Z,794.29
2017-12-28T06:32:54.372Z,794.31
2017-12-28T06:33:54.382Z,794.32
2017-12-28T06:34:54.380Z,794.32
2017-12-28T06:35:54.380Z,794.27
2017-12-28T06:36:54.375Z,794.34
2017-12-28T06:37:54.376Z,794.34
2017-12-28T06:38:54.383Z,794.38
2017-12-28T06:39:54.378Z,794.41
2017-12-28T06:40:54.382Z,794.39
2017-12-28T06:41:54.384Z,794.37
2017-12-28T06:42:54.388Z,794.41
2017-12-28T06:43:54.382Z,794.48
2017-12-28T06:44:54.384Z,794.46
2017-12-28T06:45:54.386Z,794.51
2017-12-28T06:46:54.387Z,794.57
2017-12-28T06:47:54.392Z,794.59
2017-12-28T06:48:54.386Z,794.61
2017-12-28T06:49:54.391Z,794.66
2017-12-28T06:50:54.385Z,794.64
2017-12-28T06:51:54.391Z,794.70
2017-12-28T06:52:54.388Z,794.72
2017-12-28T06:53:54.389Z,794.71
2017-12-28T06:54:54.398Z,794.71
2017-12-28T06:55:54.395Z,794.76
2017-12-28T06:56:54.395Z,794.74
2017-12-28T06:57:54.391Z,794.74
2017-12-28T06:58:54.402Z,794.69
2017-12-28T06:59:54.399Z,794.74
2017-12-28T07:00:54.396Z,794.73
2017-12-28T07:01:54.401Z,794.80
2017-12-28T07:02:54.396Z,794.81
2017-12-28T07:03:54.396Z,794.81
2017-12-28T07:04:54.402Z,794.81
2017-12-28T07:05:54.405Z,794.86
2017-12-28T07:06:54.400Z,794.81
2017-12-28T07:07:54.400Z,794.84
2017-12-28T07:08:54.408Z,794.83
2017-12-28T07:09:54.405Z,794.84
2017-12-28T07:10:54.763Z,794.83
2017-12-28T07:11:54.403Z,794.82
2017-12-28T07:12:54.409Z,794.84
2017-12-28T07:13:54.403Z,794.84
2017-12-28T07:14:54.410Z,794.83
2017-12-28T07:15:54.410Z,794.84
2017-12-28T07:16:54.411Z,794.88
2017-12-28T07:17:54.405Z,794.86
2017-12-28T07:18:54.418Z,794.87
2017-12-28T07:19:54.416Z,794.90
2017-12-28T07:20:54.412Z,794.88
2017-12-28T07:21:54.411Z,794.87
2017-12-28T07:22:54.409Z,794.86
2017-12-28T07:23:54.409Z,794.89
2017-12-28T07:24:54.416Z,794.90
2017-12-28T07:25:54.416Z,794.95
2017-12-28T07:26:54.414Z,794.95
2017-12-28T07:27:54.418Z,795.01
2017-12-28T07:28:54.412Z,795.01
2017-12-28T07:29:54.416Z,794.99
2017-12-28T07:30:54.412Z,795.06
2017-12-28T07:31:54.414Z,795.03
2017-12-28T07:32:54.413Z,794.97
2017-12-28T07:33:54.415Z,795.10
2017-12-28T07:34:54.417Z,795.05
2017-12-28T07:35:54.416Z,795.07
2017-12-28T07:36:54.431Z,795.07
2017-12-28T07:37:54.420Z,795.07
2017-12-28T07:38:54.419Z,795.11
2017-12-28T07:39:54.419Z,795.08
2017-12-28T07:40:54.425Z,795.09
2017-12-28T07:41:54.423Z,795.14
2017-12-28T07:42:54.425Z,795.14
2017-12-28T07:43:54.428Z,795.14
2017-12-28T07:44:54.427Z,795.18
2017-12-28T07:45:54.426Z,795.25
2017-12-28T07:46:54.427Z,795.25
2017-12-28T07:47:54.422Z,795.23
2017-12-28T07:48:54.424Z,795.25
2017-12-28T07:49:54.422Z,795.19
2017-12-28T07:50:54.428Z,795.19
2017-12-28T07:51:54.425Z,795.16
2017-12-28T07:52:54.427Z,795.15
2017-12-28T07:53:54.432Z,795.19
2017-12-28T07:54:54.433Z,795.20
2017-12-28T07:55:54.429Z,795.19
2017-12-28T07:56:54.432Z,795.22
2017-12-28T07:57:54.427Z,795.19
2017-12-28T07:58:54.434Z,795.17
2017-12-28T07:59:54.431Z,795.17
2017-12-28T08:00:54.430Z,795.19
2017-12-28T08:01:54.430Z,795.21
2017-12-28T08:02:54.432Z,795.20
2017-12-28T08:03:54.431Z,795.21
2017-12-28T08:04:54.431Z,795.21
2017-12-28T08:05:54.432Z,795.23
2017-12-28T08:06:54.432Z,795.23
2017-12-28T08:07:54.439Z,795.26
2017-12-28T08:08:54.439Z,795.29
2017-12-28T08:09:54.441Z,795.23
2017-12-28T08:10:54.435Z,795.28
2017-12-28T08:11:54.437Z,795.32
2017-12-28T08:12:54.438Z,795.33
2017-12-28T08:13:54.440Z,795.33
2017-12-28T08:14:54.445Z,795.34
2017-12-28T08:15:54.444Z,795.32
2017-12-28T08:16:54.441Z,795.35
2017-12-28T08:17:54.478Z,795.32
2017-12-28T08:18:54.441Z,795.35
2017-12-28T08:19:54.442Z,795.38
2017-12-28T08:20:54.443Z,795.39
2017-12-28T08:21:54.450Z,795.41
2017-12-28T08:22:54.454Z,795.39
2017-12-28T08:23:54.445Z,795.39
2017-12-28T08:24:54.446Z,795.45
2017-12-28T08:25:54.446Z,795.41
2017-12-28T08:26:54.452Z,795.31
2017-12-28T08:27:54.453Z,795.45
2017-12-28T08:28:54.454Z,795.47
2017-12-28T08:29:54.459Z,795.47
2017-12-28T08:30:54.456Z,795.48
2017-12-28T08:31:54.457Z,795.51
2017-12-28T08:32:54.458Z,795.56
2017-12-28T08:33:54.453Z,795.58
2017-12-28T08:34:54.459Z,795.61
2017-12-28T08:35:54.454Z,795.59
2017-12-28T08:36:54.461Z,795.64
2017-12-28T08:37:54.457Z,795.68
2017-12-28T08:38:54.477Z,795.69
2017-12-28T08:39:54.465Z,795.69
2017-12-28T08:40:54.460Z,795.71
2017-12-28T08:41:54.460Z,795.71
2017-12-28T08:42:54.458Z,795.71
2017-12-28T08:43:54.461Z,795.77
2017-12-28T08:44:54.462Z,795.77
2017-12-28T08:45:54.468Z,795.71
2017-12-28T08:46:54.467Z,795.72
2017-12-28T08:47:54.621Z,795.76
2017-12-28T08:48:54.465Z,795.72
2017-12-28T08:49:54.465Z,795.79
2017-12-28T08:50:54.468Z,795.89
2017-12-28T08:51:54.470Z,795.87
2017-12-28T08:52:54.472Z,795.85
2017-12-28T08:53:54.474Z,795.88
2017-12-28T08:54:54.471Z,795.83
2017-12-28T08:55:54.475Z,795.84
2017-12-28T08:56:54.470Z,795.87
2017-12-28T08:57:54.473Z,795.84
2017-12-28T08:58:54.476Z,795.92
2017-12-28T08:59:54.471Z,795.94
2017-12-28T09:00:54.481Z,795.87
2017-12-28T09:01:54.476Z,795.97
2017-12-28T09:02:54.475Z,795.97
2017-12-28T09:03:54.482Z,795.97
2017-12-28T09:04:54.476Z,796.00
2017-12-28T09:05:54.476Z,796.02
2017-12-28T09:06:54.477Z,796.06
2017-12-28T09:07:54.485Z,796.10
2017-12-28T09:08:54.483Z,796.14
2017-12-28T09:09:54.494Z,796.15
2017-12-28T09:10:54.485Z,796.12
2017-12-28T09:11:54.485Z,796.14
2017-12-28T09:12:54.483Z,796.09
2017-12-28T09:13:54.488Z,796.07
2017-12-28T09:14:54.489Z,796.11
2017-12-28T09:15:54.484Z,796.04
2017-12-28T09:16:54.484Z,796.06
2017-12-28T09:17:54.492Z,796.10
2017-12-28T09:18:54.493Z,796.12
2017-12-28T09:19:54.492Z,796.16
2017-12-28T09:20:54.494Z,796.11
2017-12-28T09:21:54.498Z,796.15
2017-12-28T09:22:54.496Z,796.20
2017-12-28T09:23:54.491Z,796.21
2017-12-28T09:24:54.498Z,796.25
2017-12-28T09:25:54.550Z,796.25
2017-12-28T09:26:54.499Z,796.26
2017-12-28T09:27:54.497Z,796.22
2017-12-28T09:28:54.498Z,796.29
2017-12-28T09:29:54.500Z,796.31
2017-12-28T09:30:54.497Z,796.29
2017-12-28T09:31:54.507Z,796.27
2017-12-28T09:32:54.500Z,796.30
2017-12-28T09:33:54.506Z,796.27
2017-12-28T09:34:54.512Z,796.31
2017-12-28T09:35:54.510Z,796.36
2017-12-28T09:36:54.512Z,796.40
2017-12-28T09:37:54.511Z,796.42
2017-12-28T09:38:54.515Z,796.37
2017-12-28T09:39:54.513Z,796.37
2017-12-28T09:40:54.518Z,796.40
2017-12-28T09:41:54.517Z,796.39
2017-12-28T09:42:54.525Z,796.41
2017-12-28T09:43:54.520Z,796.45
2017-12-28T09:44:54.518Z,796.40
2017-12-28T09:45:54.524Z,796.43
2017-12-28T09:46:54.524Z,796.45
2017-12-28T09:47:54.523Z,796.45
2017-12-28T09:48:54.523Z,796.42
2017-12-28T09:49:54.528Z,796.43
2017-12-28T09:50:54.528Z,796.40
2017-12-28T09:51:54.579Z,796.43
2017-12-28T09:52:54.534Z,796.42
2017-12-28T09:53:54.549Z,796.46
2017-12-28T09:54:54.581Z,796.46
2017-12-28T09:55:54.535Z,796.40
2017-12-28T09:56:54.544Z,796.40
2017-12-28T09:57:54.540Z,796.37
2017-12-28T09:58:54.543Z,796.37
2017-12-28T09:59:54.553Z,796.38
2017-12-28T10:00:54.546Z,796.40
2017-12-28T10:01:54.549Z,796.40
2017-12-28T10:02:54.549Z,796.46
2017-12-28T10:03:54.550Z,796.47
2017-12-28T10:04:54.557Z,796.47
2017-12-28T10:05:54.564Z,796.52
2017-12-28T10:06:54.563Z,796.54
2017-12-28T10:07:54.562Z,796.57
2017-12-28T10:08:54.569Z,796.56
2017-12-28T10:09:54.570Z,796.59
2017-12-28T10:10:54.570Z,796.56
2017-12-28T10:11:54.578Z,796.56
2017-12-28T10:12:54.582Z,796.52
2017-12-28T10:13:54.578Z,796.47
2017-12-28T10:14:54.584Z,796.47
2017-12-28T10:15:54.593Z,796.48
2017-12-28T10:16:54.615Z,796.49
2017-12-28T10:17:54.605Z,796.45
2017-12-28T10:18:54.600Z,796.50
2017-12-28T10:19:54.616Z,796.47
2017-12-28T10:20:54.630Z,796.49
2017-12-28T10:21:54.699Z,796.50
2017-12-28T10:22:54.607Z,796.50
2017-12-28T10:23:54.618Z,796.49
2017-12-28T10:24:54.620Z,796.47
2017-12-28T10:25:54.614Z,796.52
2017-12-28T10:26:54.618Z,796.53
2017-12-28T10:27:54.624Z,796.50
2017-12-28T10:28:54.625Z,796.54
2017-12-28T10:29:54.632Z,796.55
2017-12-28T10:30:54.631Z,796.49
2017-12-28T10:31:54.634Z,796.59
2017-12-28T10:32:54.644Z,796.50
2017-12-28T10:33:54.641Z,796.55
2017-12-28T10:34:54.641Z,796.54
2017-12-28T10:35:54.653Z,796.56
2017-12-28T10:36:54.651Z,796.54
2017-12-28T10:37:54.663Z,796.55
2017-12-28T10:38:54.656Z,796.55
2017-12-28T10:39:54.656Z,796.60
2017-12-28T10:40:54.664Z,796.58
2017-12-28T10:41:54.665Z,796.56
2017-12-28T10:42:54.671Z,796.54
2017-12-28T10:43:54.671Z,796.55
2017-12-28T10:44:54.678Z,796.58
2017-12-28T10:45:54.682Z,796.55
2017-12-28T10:46:54.685Z,796.61
2017-12-28T10:47:54.688Z,796.56
2017-12-28T10:48:54.693Z,796.55
2017-12-28T10:49:54.692Z,796.60
2017-12-28T10:50:54.691Z,796.59
2017-12-28T10:51:54.699Z,796.60
2017-12-28T10:52:54.699Z,796.62
2017-12-28T10:53:54.713Z,796.64
2017-12-28T10:54:54.709Z,796.64
2017-12-28T10:55:54.706Z,796.64
2017-12-28T10:56:54.711Z,796.61
2017-12-28T10:57:54.719Z,796.62
2017-12-28T10:58:54.722Z,796.64
2017-12-28T10:59:54.727Z,796.60
2017-12-28T11:00:54.728Z,796.61
2017-12-28T11:01:54.731Z,796.63
2017-12-28T11:02:54.730Z,796.63
2017-12-28T11:03:54.735Z,796.58
2017-12-28T11:04:54.744Z,796.62
2017-12-28T11:05:54.741Z,796.66
2017-12-28T11:06:54.743Z,796.63
2017-12-28T11:07:54.753Z,796.64
2017-12-28T11:08:54.750Z,796.63
2017-12-28T11:09:54.756Z,796.60
2017-12-28T11:10:54.763Z,796.63
2017-12-28T11:11:54.770Z,796.61
2017-12-28T11:12:54.771Z,796.66
2017-12-28T11:13:54.780Z,796.67
2017-12-28T11:14:54.774Z,796.64
2017-12-28T11:15:54.785Z,796.60
2017-12-28T11:16:54.784Z,796.60
2017-12-28T11:17:54.794Z,796.64
2017-12-28T11:18:54.797Z,796.62
2017-12-28T11:19:54.804Z,796.63
2017-12-28T11:20:54.797Z,796.60
2017-12-28T11:21:54.806Z,796.61
2017-12-28T11:22:54.818Z,796.63
2017-12-28T11:23:54.815Z,796.62
2017-12-28T11:24:54.816Z,796.63
2017-12-28T11:25:54.819Z,796.63
2017-12-28T11:26:54.833Z,796.66
2017-12-28T11:27:54.822Z,796.66
2017-12-28T11:28:54.830Z,796.70
2017-12-28T11:29:54.842Z,796.68
2017-12-28T11:30:54.839Z,796.66
2017-12-28T11:31:54.842Z,796.64
2017-12-28T11:32:54.848Z,796.64
2017-12-28T11:33:54.844Z,796.70
2017-12-28T11:34:54.851Z,796.71
2017-12-28T11:35:54.857Z,796.74
2017-12-28T11:36:54.866Z,796.71
2017-12-28T11:37:54.865Z,796.68
2017-12-28T11:38:54.871Z,796.69
2017-12-28T11:39:54.872Z,796.69
2017-12-28T11:40:54.875Z,796.69
2017-12-28T11:41:54.875Z,796.74
2017-12-28T11:42:54.887Z,796.77
2017-12-28T11:43:54.881Z,796.77
2017-12-28T11:44:54.891Z,796.76
2017-12-28T11:45:54.888Z,796.71
2017-12-28T11:46:54.898Z,796.73
2017-12-28T11:47:54.904Z,796.73
2017-12-28T11:48:54.907Z,796.77
2017-12-28T11:49:54.904Z,796.70
2017-12-28T11:50:54.917Z,796.81
2017-12-28T11:51:54.918Z,796.77
2017-12-28T11:52:54.923Z,796.75
2017-12-28T11:53:54.933Z,796.77
2017-12-28T11:54:54.958Z,796.71
2017-12-28T11:55:54.943Z,796.73
2017-12-28T11:56:54.939Z,796.69
2017-12-28T11:57:54.950Z,796.72
2017-12-28T11:58:54.952Z,796.79
2017-12-28T11:59:54.966Z,796.72
2017-12-28T12:00:54.985Z,796.74
2017-12-28T12:01:54.984Z,796.73
2017-12-28T12:02:54.975Z,796.73
2017-12-28T12:03:54.983Z,796.75
2017-12-28T12:04:56.857Z,796.73
2017-12-28T12:05:54.993Z,796.77
2017-12-28T12:06:55.006Z,796.75
2017-12-28T12:07:55.007Z,796.75
2017-12-28T12:08:55.014Z,796.72
2017-12-28T12:09:55.020Z,796.82
2017-12-28T12:10:55.077Z,796.75
2017-12-28T12:11:55.036Z,796.75
2017-12-28T12:12:55.038Z,796.76
2017-12-28T12:13:55.050Z,796.75
2017-12-28T12:14:55.053Z,796.80
2017-12-28T12:15:55.059Z,796.86
2017-12-28T12:16:55.069Z,796.92
2017-12-28T12:17:55.072Z,796.89
2017-12-28T12:18:55.085Z,796.85
2017-12-28T12:19:55.086Z,796.84
2017-12-28T12:20:55.100Z,796.86
2017-12-28T12:21:55.107Z,796.84
2017-12-28T12:22:55.108Z,796.91
2017-12-28T12:23:55.111Z,796.86
2017-12-28T12:24:55.125Z,796.93
2017-12-28T12:25:55.134Z,796.84
2017-12-28T12:26:55.134Z,796.91
2017-12-28T12:27:55.138Z,796.92
2017-12-28T12:28:55.155Z,796.90